createdAt,value
2019-05-26T00:01:59.488Z,24.10
2019-05-26T00:04:27.770Z,19.97
2019-05-26T00:06:56.142Z,23.50
2019-05-26T00:09:24.544Z,22.97
2019-05-26T00:11:52.921Z,23.97
2019-05-26T00:14:21.493Z,25.30
2019-05-26T00:16:49.878Z,24.43
2019-05-26T00:19:18.359Z,24.23
2019-05-26T00:21:46.519Z,23.57
2019-05-26T00:24:14.903Z,23.20
2019-05-26T00:26:43.484Z,23.13
2019-05-26T00:29:12.342Z,23.23
2019-05-26T00:31:40.636Z,22.80
2019-05-26T00:34:09.044Z,22.77
2019-05-26T00:36:37.515Z,23.93
2019-05-26T00:39:06.500Z,22.00
2019-05-26T00:41:34.710Z,22.10
2019-05-26T00:44:03.190Z,21.03
2019-05-26T00:46:31.347Z,20.97
2019-05-26T00:49:00.250Z,21.90
2019-05-26T00:51:28.709Z,23.10
2019-05-26T00:53:57.148Z,23.30
2019-05-26T00:56:25.564Z,22.60
2019-05-26T00:58:53.865Z,22.83
2019-05-26T01:01:22.441Z,23.70
2019-05-26T01:03:50.888Z,24.00
2019-05-26T01:06:19.640Z,22.83
2019-05-26T01:08:48.127Z,22.10
2019-05-26T01:11:16.642Z,22.90
2019-05-26T01:13:45.179Z,23.07
2019-05-26T01:16:13.642Z,22.67
2019-05-26T01:18:41.866Z,22.17
2019-05-26T01:21:10.457Z,22.40
2019-05-26T01:23:38.892Z,21.83
2019-05-26T01:26:07.221Z,19.40
2019-05-26T01:28:35.526Z,22.20
2019-05-26T01:31:03.861Z,23.40
2019-05-26T01:33:32.553Z,26.40
2019-05-26T01:36:00.999Z,21.57
2019-05-26T01:38:29.215Z,22.67
2019-05-26T01:40:58.803Z,22.77
2019-05-26T01:43:27.390Z,22.80
2019-05-26T01:45:56.174Z,20.30
2019-05-26T01:48:24.756Z,21.17
2019-05-26T01:50:53.066Z,20.40
2019-05-26T01:53:21.501Z,21.07
2019-05-26T01:55:50.084Z,21.17
2019-05-26T01:58:18.610Z,22.83
2019-05-26T02:00:47.066Z,26.00
2019-05-26T02:03:15.545Z,22.80
2019-05-26T02:05:43.871Z,23.70
2019-05-26T02:08:12.408Z,23.77
2019-05-26T02:10:40.906Z,22.53
2019-05-26T02:13:09.325Z,23.47
2019-05-26T02:15:37.753Z,23.70
2019-05-26T02:18:06.432Z,23.67
2019-05-26T02:20:34.588Z,23.50
2019-05-26T02:23:02.881Z,23.40
2019-05-26T02:25:31.080Z,23.13
2019-05-26T02:27:59.516Z,23.43
2019-05-26T02:30:27.676Z,25.40
2019-05-26T02:32:56.095Z,27.27
2019-05-26T02:35:24.421Z,25.10
2019-05-26T02:37:52.589Z,23.53
2019-05-26T02:40:21.420Z,24.23
2019-05-26T02:42:50.823Z,23.77
2019-05-26T02:45:19.758Z,23.50
2019-05-26T02:47:48.172Z,22.20
2019-05-26T02:50:16.505Z,21.87
2019-05-26T02:52:44.724Z,23.00
2019-05-26T02:55:14.035Z,24.80
2019-05-26T02:57:42.252Z,22.87
2019-05-26T03:00:11.211Z,21.63
2019-05-26T03:02:39.769Z,21.90
2019-05-26T03:05:09.219Z,20.63
2019-05-26T03:07:39.006Z,21.43
2019-05-26T03:10:07.466Z,20.20
2019-05-26T03:12:36.491Z,21.77
2019-05-26T03:15:06.471Z,22.50
2019-05-26T03:17:34.679Z,24.50
2019-05-26T03:20:03.362Z,26.50
2019-05-26T03:22:31.671Z,26.40
2019-05-26T03:25:00.746Z,26.77
2019-05-26T03:27:29.484Z,24.93
2019-05-26T03:29:57.862Z,24.83
2019-05-26T03:32:26.888Z,24.67
2019-05-26T03:34:55.573Z,24.87
2019-05-26T03:37:23.919Z,24.87
2019-05-26T03:39:52.376Z,26.43
2019-05-26T03:42:20.528Z,26.00
2019-05-26T03:44:49.939Z,25.70
2019-05-26T03:47:18.589Z,27.20
2019-05-26T03:49:46.972Z,25.10
2019-05-26T03:52:15.123Z,25.27
2019-05-26T03:54:43.695Z,25.87
2019-05-26T03:57:12.029Z,27.43
2019-05-26T03:59:40.245Z,25.20
2019-05-26T04:02:08.608Z,25.80
2019-05-26T04:04:37.229Z,25.03
2019-05-26T04:07:05.549Z,22.90
2019-05-26T04:09:33.812Z,21.07
2019-05-26T04:12:02.550Z,21.37
2019-05-26T04:14:30.708Z,21.87
2019-05-26T04:16:59.496Z,26.13
2019-05-26T04:19:28.216Z,27.87
2019-05-26T04:21:56.642Z,29.37
2019-05-26T04:24:24.934Z,23.80
2019-05-26T04:26:53.280Z,21.40
2019-05-26T04:29:21.437Z,22.07
2019-05-26T04:31:49.694Z,22.03
2019-05-26T04:34:18.024Z,22.60
2019-05-26T04:36:46.194Z,23.40
2019-05-26T04:39:14.898Z,23.63
2019-05-26T04:41:43.270Z,23.13
2019-05-26T04:44:11.490Z,19.53
2019-05-26T04:46:40.947Z,19.33
2019-05-26T04:49:09.113Z,18.13
2019-05-26T04:51:37.737Z,19.17
2019-05-26T04:54:06.330Z,18.10
2019-05-26T04:56:34.475Z,16.43
2019-05-26T04:59:03.076Z,17.77
2019-05-26T05:01:31.338Z,17.70
2019-05-26T05:03:59.620Z,18.37
2019-05-26T05:06:27.852Z,19.27
2019-05-26T05:08:56.237Z,20.13
2019-05-26T05:11:25.198Z,18.60
2019-05-26T05:13:53.751Z,19.90
2019-05-26T05:16:22.128Z,17.73
2019-05-26T05:18:50.314Z,13.43
2019-05-26T05:21:18.585Z,15.77
2019-05-26T05:23:46.920Z,14.77
2019-05-26T05:26:15.603Z,13.83
2019-05-26T05:28:43.871Z,11.90
2019-05-26T05:31:12.145Z,10.50
2019-05-26T05:33:40.306Z,11.13
2019-05-26T05:36:08.649Z,10.97
2019-05-26T05:38:36.999Z,12.07
2019-05-26T05:41:05.600Z,10.30
2019-05-26T05:43:34.108Z,8.50
2019-05-26T05:46:02.447Z,9.53
2019-05-26T05:48:31.551Z,9.97
2019-05-26T05:51:00.130Z,9.77
2019-05-26T05:53:28.826Z,11.53
2019-05-26T05:55:57.316Z,11.37
2019-05-26T05:58:25.825Z,10.10
2019-05-26T06:00:54.764Z,9.70
2019-05-26T06:03:23.359Z,11.30
2019-05-26T06:05:51.517Z,9.90
2019-05-26T06:08:20.349Z,9.80
2019-05-26T06:10:48.824Z,10.57
2019-05-26T06:13:17.160Z,9.37
2019-05-26T06:15:45.716Z,10.47
2019-05-26T06:18:13.873Z,10.10
2019-05-26T06:20:42.072Z,10.33
2019-05-26T06:23:10.441Z,9.50
2019-05-26T06:25:38.601Z,10.17
2019-05-26T06:28:06.917Z,9.17
2019-05-26T06:30:35.289Z,9.10
2019-05-26T06:33:03.584Z,9.63
2019-05-26T06:35:32.832Z,9.97
2019-05-26T06:38:01.343Z,9.40
2019-05-26T06:40:29.513Z,9.57
2019-05-26T06:42:57.865Z,9.67
2019-05-26T06:45:26.221Z,9.67
2019-05-26T06:47:54.863Z,9.20
2019-05-26T06:50:24.304Z,9.57
2019-05-26T06:52:52.658Z,8.90
2019-05-26T06:55:21.043Z,9.40
2019-05-26T06:57:49.387Z,10.30
2019-05-26T07:00:17.821Z,9.90
2019-05-26T07:02:46.384Z,9.80
2019-05-26T07:05:18.440Z,9.40
2019-05-26T07:07:45.462Z,9.60
2019-05-26T07:10:13.736Z,9.77
2019-05-26T07:12:41.894Z,8.77
2019-05-26T07:15:10.582Z,9.03
2019-05-26T07:17:38.732Z,9.88
2019-05-26T07:20:07.512Z,9.90
2019-05-26T07:22:35.984Z,9.88
2019-05-26T07:25:05.615Z,9.33
2019-05-26T07:27:33.775Z,9.58
2019-05-26T07:30:02.412Z,8.58
2019-05-26T07:32:30.724Z,8.40
2019-05-26T07:34:59.063Z,8.10
2019-05-26T07:37:27.958Z,8.25
2019-05-26T07:39:56.313Z,9.80
2019-05-26T07:42:24.485Z,9.88
2019-05-26T07:44:53.993Z,10.20
2019-05-26T07:47:22.333Z,10.53
2019-05-26T07:49:51.208Z,8.75
2019-05-26T07:52:20.300Z,9.23
2019-05-26T07:54:48.443Z,8.68
2019-05-26T07:57:16.642Z,9.25
2019-05-26T07:59:45.399Z,9.40
2019-05-26T08:02:13.663Z,8.95
2019-05-26T08:04:41.809Z,9.60
2019-05-26T08:07:28.569Z,9.18
2019-05-26T08:09:57.018Z,7.50
2019-05-26T08:12:29.737Z,7.45
2019-05-26T08:14:55.354Z,7.15
2019-05-26T08:17:23.757Z,11.12
2019-05-26T08:19:52.696Z,10.65
2019-05-26T08:22:21.455Z,13.78
2019-05-26T08:24:49.784Z,7.78
2019-05-26T08:27:18.503Z,8.35
2019-05-26T08:29:47.474Z,6.80
2019-05-26T08:32:15.760Z,7.65
2019-05-26T08:34:44.140Z,7.80
2019-05-26T08:37:12.532Z,7.28
2019-05-26T08:39:40.802Z,8.10
2019-05-26T08:42:09.315Z,8.88
2019-05-26T08:44:37.660Z,8.63
2019-05-26T08:47:06.154Z,8.68
2019-05-26T08:49:34.493Z,8.85
2019-05-26T08:52:02.866Z,9.08
2019-05-26T08:54:32.309Z,7.87
2019-05-26T08:57:00.774Z,8.33
2019-05-26T08:59:29.810Z,8.40
2019-05-26T09:01:58.233Z,8.83
2019-05-26T09:04:26.514Z,8.53
2019-05-26T09:06:54.918Z,8.48
2019-05-26T09:09:23.216Z,11.10
2019-05-26T09:11:51.473Z,9.40
2019-05-26T09:14:19.841Z,9.13
2019-05-26T09:16:48.153Z,8.45
2019-05-26T09:19:16.626Z,9.43
2019-05-26T09:21:44.808Z,8.43
2019-05-26T09:24:12.975Z,7.55
2019-05-26T09:26:41.214Z,7.62
2019-05-26T09:29:09.743Z,7.22
2019-05-26T09:31:38.744Z,7.28
2019-05-26T09:34:07.030Z,7.67
2019-05-26T09:36:35.231Z,8.58
2019-05-26T09:39:05.426Z,8.20
2019-05-26T09:41:34.173Z,7.70
2019-05-26T09:44:02.438Z,9.53
2019-05-26T09:46:30.865Z,8.15
2019-05-26T09:49:01.085Z,8.53
2019-05-26T09:51:29.968Z,8.05
2019-05-26T09:54:01.734Z,9.15
2019-05-26T09:56:29.780Z,7.28
2019-05-26T09:58:58.198Z,7.10
2019-05-26T10:01:26.580Z,8.93
2019-05-26T10:03:56.188Z,7.25
2019-05-26T10:06:24.502Z,6.47
2019-05-26T10:08:52.909Z,6.15
2019-05-26T10:11:21.684Z,8.03
2019-05-26T10:13:50.358Z,6.72
2019-05-26T10:16:18.725Z,6.42
2019-05-26T10:18:47.297Z,6.12
2019-05-26T10:21:16.581Z,5.97
2019-05-26T10:23:45.402Z,6.45
2019-05-26T10:26:13.676Z,6.42
2019-05-26T10:28:42.662Z,8.33
2019-05-26T10:31:10.804Z,5.17
2019-05-26T10:33:39.427Z,6.10
2019-05-26T10:36:07.869Z,6.33
2019-05-26T10:38:36.642Z,6.20
2019-05-26T10:41:05.462Z,5.53
2019-05-26T10:43:46.189Z,4.95
2019-05-26T10:46:03.893Z,5.60
2019-05-26T10:48:32.148Z,5.40
2019-05-26T10:51:00.503Z,4.85
2019-05-26T10:53:28.815Z,4.40
2019-05-26T10:55:57.048Z,4.97
2019-05-26T10:58:26.800Z,4.85
2019-05-26T11:00:55.572Z,4.97
2019-05-26T11:03:24.336Z,5.17
2019-05-26T11:05:52.940Z,4.45
2019-05-26T11:08:21.429Z,4.42
2019-05-26T11:10:49.872Z,4.72
2019-05-26T11:13:18.287Z,4.70
2019-05-26T11:15:48.020Z,4.30
2019-05-26T11:18:16.910Z,4.75
2019-05-26T11:20:45.714Z,4.75
2019-05-26T11:23:14.564Z,4.85
2019-05-26T11:25:44.331Z,4.72
2019-05-26T11:28:13.632Z,4.60
2019-05-26T11:30:42.662Z,4.62
2019-05-26T11:33:10.921Z,4.97
2019-05-26T11:35:39.748Z,4.70
2019-05-26T11:38:08.714Z,4.67
2019-05-26T11:40:37.693Z,4.95
2019-05-26T11:43:16.229Z,4.85
2019-05-26T11:45:37.222Z,5.00
2019-05-26T11:48:05.724Z,4.55
2019-05-26T11:50:33.990Z,4.75
2019-05-26T11:53:02.604Z,5.20
2019-05-26T11:55:30.936Z,5.05
2019-05-26T11:57:59.242Z,4.70
2019-05-26T12:00:28.741Z,4.87
2019-05-26T12:03:00.362Z,3.92
2019-05-26T12:05:27.735Z,3.98
2019-05-26T12:07:56.212Z,3.58
2019-05-26T12:10:24.787Z,2.58
2019-05-26T12:12:53.268Z,2.47
2019-05-26T12:15:21.709Z,2.72
2019-05-26T12:17:50.233Z,2.42
2019-05-26T12:20:18.686Z,2.60
2019-05-26T12:22:47.018Z,2.90
2019-05-26T12:25:15.185Z,3.30
2019-05-26T12:27:43.523Z,3.10
2019-05-26T12:30:12.155Z,3.40
2019-05-26T12:32:40.370Z,3.47
2019-05-26T12:35:08.872Z,3.22
2019-05-26T12:37:37.019Z,3.12
2019-05-26T12:40:08.230Z,3.90
2019-05-26T12:42:36.528Z,3.90
2019-05-26T12:45:08.411Z,3.75
2019-05-26T12:47:36.780Z,4.47
2019-05-26T12:50:05.433Z,4.45
2019-05-26T12:52:33.802Z,3.98
2019-05-26T12:55:02.203Z,4.45
2019-05-26T12:57:30.738Z,4.40
2019-05-26T12:59:59.049Z,4.45
2019-05-26T13:02:28.572Z,4.30
2019-05-26T13:04:57.388Z,4.45
2019-05-26T13:07:26.069Z,4.33
2019-05-26T13:09:54.357Z,4.00
2019-05-26T13:12:22.750Z,4.20
2019-05-26T13:15:04.930Z,4.33
2019-05-26T13:17:20.933Z,3.75
2019-05-26T13:19:49.274Z,3.90
2019-05-26T13:22:17.763Z,4.47
2019-05-26T13:24:46.046Z,4.15
2019-05-26T13:27:14.208Z,4.08
2019-05-26T13:29:42.474Z,4.17
2019-05-26T13:32:10.806Z,3.98
2019-05-26T13:34:39.454Z,4.30
2019-05-26T13:37:07.821Z,4.25
2019-05-26T13:39:36.527Z,4.30
2019-05-26T13:42:05.067Z,4.40
2019-05-26T13:44:33.351Z,4.28
2019-05-26T13:47:01.778Z,4.10
2019-05-26T13:49:30.647Z,4.80
2019-05-26T13:52:01.316Z,4.72
2019-05-26T13:54:33.546Z,4.67
2019-05-26T13:57:02.312Z,4.85
2019-05-26T13:59:31.037Z,4.92
2019-05-26T14:02:00.871Z,4.75
2019-05-26T14:04:30.722Z,4.30
2019-05-26T14:06:59.218Z,4.67
2019-05-26T14:09:27.850Z,4.60
2019-05-26T14:11:56.540Z,4.40
2019-05-26T14:14:24.786Z,4.30
2019-05-26T14:16:53.138Z,4.30
2019-05-26T14:19:21.485Z,4.30
2019-05-26T14:21:50.933Z,4.08
2019-05-26T14:24:19.533Z,4.00
2019-05-26T14:26:47.862Z,4.17
2019-05-26T14:29:16.427Z,3.80
2019-05-26T14:31:44.865Z,4.10
2019-05-26T14:34:13.612Z,3.72
2019-05-26T14:36:42.295Z,3.52
2019-05-26T14:39:10.670Z,3.60
2019-05-26T14:41:39.491Z,3.72
2019-05-26T14:44:07.637Z,3.80
2019-05-26T14:46:41.693Z,3.98
2019-05-26T14:49:10.892Z,3.83
2019-05-26T14:51:39.910Z,3.70
2019-05-26T14:54:08.735Z,3.80
2019-05-26T14:56:37.427Z,3.95
2019-05-26T14:59:05.750Z,3.40
2019-05-26T15:01:38.419Z,4.10
2019-05-26T15:04:07.153Z,4.10
2019-05-26T15:06:37.879Z,4.10
2019-05-26T15:09:07.872Z,4.20
2019-05-26T15:11:38.218Z,4.45
2019-05-26T15:14:07.025Z,4.12
2019-05-26T15:16:35.710Z,4.12
2019-05-26T15:19:09.274Z,4.87
2019-05-26T15:21:37.493Z,4.83
2019-05-26T15:24:05.650Z,4.70
2019-05-26T15:26:34.498Z,4.33
2019-05-26T15:29:08.964Z,4.30
2019-05-26T15:31:37.079Z,5.30
2019-05-26T15:34:06.008Z,4.78
2019-05-26T15:36:40.472Z,4.72
2019-05-26T15:39:11.858Z,4.40
2019-05-26T15:41:40.197Z,4.28
2019-05-26T15:44:08.860Z,4.45
2019-05-26T15:46:37.028Z,3.95
2019-05-26T15:49:05.172Z,4.60
2019-05-26T15:51:33.711Z,4.15
2019-05-26T15:54:02.160Z,4.33
2019-05-26T15:56:30.308Z,4.42
2019-05-26T15:58:58.935Z,4.53
2019-05-26T16:01:27.125Z,4.20
2019-05-26T16:03:55.684Z,4.65
2019-05-26T16:06:24.240Z,4.55
2019-05-26T16:08:53.510Z,4.58
2019-05-26T16:11:21.807Z,4.40
2019-05-26T16:13:49.975Z,5.10
2019-05-26T16:16:18.571Z,5.20
2019-05-26T16:18:47.150Z,4.90
2019-05-26T16:21:27.580Z,4.92
2019-05-26T16:23:45.925Z,5.40
2019-05-26T16:26:14.337Z,5.90
2019-05-26T16:28:42.940Z,6.60
2019-05-26T16:31:12.381Z,5.80
2019-05-26T16:33:41.413Z,6.45
2019-05-26T16:36:09.675Z,7.40
2019-05-26T16:38:37.911Z,8.80
2019-05-26T16:41:06.898Z,8.50
2019-05-26T16:43:35.453Z,8.03
2019-05-26T16:46:04.217Z,6.50
2019-05-26T16:48:33.421Z,6.33
2019-05-26T16:51:02.222Z,6.15
2019-05-26T16:53:30.737Z,5.92
2019-05-26T16:55:58.898Z,6.67
2019-05-26T16:58:27.049Z,6.10
2019-05-26T17:00:55.420Z,6.33
2019-05-26T17:03:23.682Z,5.87
2019-05-26T17:06:05.261Z,5.47
2019-05-26T17:08:21.741Z,5.70
2019-05-26T17:10:49.998Z,5.50
2019-05-26T17:13:18.157Z,5.42
2019-05-26T17:15:47.048Z,5.70
2019-05-26T17:18:15.472Z,5.42
2019-05-26T17:20:43.692Z,5.70
2019-05-26T17:23:12.456Z,5.62
2019-05-26T17:25:40.703Z,5.10
2019-05-26T17:28:09.428Z,7.03
2019-05-26T17:30:38.515Z,6.40
2019-05-26T17:33:06.738Z,6.55
2019-05-26T17:35:35.086Z,7.47
2019-05-26T17:38:03.268Z,5.90
2019-05-26T17:40:31.614Z,6.95
2019-05-26T17:42:59.902Z,7.17
2019-05-26T17:45:28.416Z,5.35
2019-05-26T17:47:56.901Z,5.58
2019-05-26T17:50:25.171Z,5.67
2019-05-26T17:52:53.695Z,4.67
2019-05-26T17:55:22.262Z,5.70
2019-05-26T17:57:50.420Z,6.00
2019-05-26T18:00:18.615Z,5.37
2019-05-26T18:02:47.003Z,6.62
2019-05-26T18:05:15.904Z,9.35
2019-05-26T18:07:44.171Z,9.90
2019-05-26T18:10:12.553Z,9.00
2019-05-26T18:12:41.649Z,7.03
2019-05-26T18:15:10.026Z,6.05
2019-05-26T18:17:47.298Z,5.80
2019-05-26T18:20:11.802Z,5.80
2019-05-26T18:22:42.288Z,7.53
2019-05-26T18:25:17.077Z,9.10
2019-05-26T18:27:45.302Z,8.45
2019-05-26T18:30:13.546Z,7.83
2019-05-26T18:32:42.219Z,8.70
2019-05-26T18:35:10.400Z,8.85
2019-05-26T18:37:40.830Z,10.70
2019-05-26T18:40:11.773Z,10.00
2019-05-26T18:42:42.252Z,13.53
2019-05-26T18:45:10.461Z,15.07
2019-05-26T18:47:38.801Z,12.40
2019-05-26T18:50:11.508Z,15.73
2019-05-26T18:52:39.764Z,17.17
2019-05-26T18:55:10.715Z,16.13
2019-05-26T18:57:39.066Z,14.07
2019-05-26T19:00:07.802Z,12.90
2019-05-26T19:02:39.014Z,12.27
2019-05-26T19:05:07.253Z,13.47
2019-05-26T19:07:37.422Z,16.23
2019-05-26T19:10:06.406Z,18.50
2019-05-26T19:12:37.068Z,17.93
2019-05-26T19:15:09.191Z,18.87
2019-05-26T19:17:38.005Z,24.07
2019-05-26T19:20:16.274Z,21.40
2019-05-26T19:22:39.638Z,16.77
2019-05-26T19:25:07.787Z,11.13
2019-05-26T19:27:38.623Z,12.10
2019-05-26T19:30:08.049Z,11.80
2019-05-26T19:32:38.795Z,11.50
2019-05-26T19:35:07.236Z,10.97
2019-05-26T19:37:35.731Z,10.80
2019-05-26T19:40:07.958Z,11.20
2019-05-26T19:42:39.085Z,10.40
2019-05-26T19:45:12.033Z,12.37
2019-05-26T19:47:42.577Z,11.57
2019-05-26T19:50:11.064Z,11.10
2019-05-26T19:52:39.624Z,11.80
2019-05-26T19:55:13.290Z,10.70
2019-05-26T19:57:41.454Z,11.53
2019-05-26T20:00:12.089Z,11.97
2019-05-26T20:02:40.510Z,14.53
2019-05-26T20:05:09.828Z,13.97
2019-05-26T20:07:37.986Z,12.50
2019-05-26T20:10:06.927Z,13.40
2019-05-26T20:12:35.624Z,13.03
2019-05-26T20:15:04.849Z,13.33
2019-05-26T20:17:34.033Z,13.40
2019-05-26T20:20:02.767Z,12.53
2019-05-26T20:22:31.430Z,12.57
2019-05-26T20:25:04.814Z,12.10
2019-05-26T20:27:33.500Z,12.23
2019-05-26T20:30:02.016Z,11.90
2019-05-26T20:32:30.460Z,11.90
2019-05-26T20:35:00.882Z,11.60
2019-05-26T20:37:29.164Z,12.63
2019-05-26T20:39:59.630Z,11.63
2019-05-26T20:42:29.425Z,10.70
2019-05-26T20:44:59.956Z,11.87
2019-05-26T20:47:28.293Z,10.43
2019-05-26T20:49:56.470Z,10.77
2019-05-26T20:52:26.646Z,10.73
2019-05-26T20:54:54.940Z,11.47
2019-05-26T20:57:23.351Z,11.57
2019-05-26T20:59:52.644Z,14.33
2019-05-26T21:02:22.351Z,12.70
2019-05-26T21:04:50.933Z,11.70
2019-05-26T21:07:19.397Z,13.50
2019-05-26T21:09:50.359Z,13.13
2019-05-26T21:12:20.711Z,11.23
2019-05-26T21:14:49.462Z,12.77
2019-05-26T21:17:17.700Z,12.93
2019-05-26T21:19:49.570Z,12.37
2019-05-26T21:22:20.525Z,12.00
2019-05-26T21:24:49.032Z,11.20
2019-05-26T21:27:17.241Z,10.10
2019-05-26T21:29:45.505Z,10.53
2019-05-26T21:32:13.958Z,11.10
2019-05-26T21:34:42.719Z,10.67
2019-05-26T21:37:12.914Z,10.40
2019-05-26T21:39:41.476Z,11.20
2019-05-26T21:42:15.665Z,10.90
2019-05-26T21:44:42.801Z,10.60
2019-05-26T21:47:11.232Z,11.10
2019-05-26T21:49:40.390Z,11.17
2019-05-26T21:52:09.131Z,12.20
2019-05-26T21:54:41.089Z,11.97
2019-05-26T21:57:07.854Z,12.30
2019-05-26T21:59:36.551Z,11.10
2019-05-26T22:02:07.098Z,11.93
2019-05-26T22:04:35.513Z,11.67
2019-05-26T22:07:06.348Z,10.50
2019-05-26T22:09:36.934Z,11.70
2019-05-26T22:12:07.399Z,11.63
2019-05-26T22:14:37.746Z,11.77
2019-05-26T22:17:08.794Z,11.83
2019-05-26T22:19:39.359Z,12.10
2019-05-26T22:22:08.613Z,11.67
2019-05-26T22:24:36.901Z,11.93
2019-05-26T22:27:05.073Z,11.97
2019-05-26T22:29:33.728Z,12.37
2019-05-26T22:32:02.552Z,13.10
2019-05-26T22:34:33.305Z,11.73
2019-05-26T22:37:01.630Z,13.33
2019-05-26T22:39:32.056Z,12.20
2019-05-26T22:42:05.035Z,12.03
2019-05-26T22:44:35.874Z,11.27
2019-05-26T22:47:04.424Z,11.63
2019-05-26T22:49:35.177Z,11.30
2019-05-26T22:52:03.565Z,11.47
2019-05-26T22:54:34.106Z,11.67
2019-05-26T22:57:04.736Z,11.40
2019-05-26T22:59:33.064Z,11.27
2019-05-26T23:02:03.798Z,11.70
2019-05-26T23:04:40.901Z,11.40
2019-05-26T23:07:11.674Z,12.00
2019-05-26T23:09:40.188Z,11.67
2019-05-26T23:12:10.661Z,12.20
2019-05-26T23:14:38.870Z,15.20
2019-05-26T23:17:07.300Z,14.93
2019-05-26T23:19:35.612Z,13.30
2019-05-26T23:22:04.390Z,12.67
2019-05-26T23:24:35.758Z,12.20
2019-05-26T23:27:04.102Z,13.03
2019-05-26T23:29:32.947Z,11.40
2019-05-26T23:32:03.605Z,11.30
2019-05-26T23:34:32.154Z,11.10
2019-05-26T23:37:04.911Z,11.97
2019-05-26T23:39:33.153Z,11.50
2019-05-26T23:42:01.364Z,11.23
2019-05-26T23:44:29.648Z,10.77
2019-05-26T23:46:58.175Z,10.43
2019-05-26T23:49:26.347Z,12.10
2019-05-26T23:52:01.412Z,11.13
2019-05-26T23:54:29.755Z,11.73
2019-05-26T23:56:58.482Z,11.30
2019-05-26T23:59:26.737Z,13.63
